AirNav   Everest Fuels
 
 613 users online  

N21 Holly Ridge/Topsail Island Airport
Holly Ridge, North Carolina, USA

GOING TO HOLLY RIDGE?


FAA INFORMATION EFFECTIVE 04 NOVEMBER 2021

Location

FAA Identifier: N21
Lat/Long: 34-29-25.7705N 077-31-55.6500W
34-29.429508N 077-31.927500W
34.4904918,-77.5321250
(estimated)
Elevation: 48 ft. / 15 m (estimated)
Variation: 08W (1985)
From city: 1 mile SE of HOLLY RIDGE, NC
Time zone: UTC -4 (UTC -5 during Standard Time)
Zip code: 28445

Airport Operations

Airport use: Open to the public
Activation date: 04/1980
Control tower: no
ARTCC: WASHINGTON CENTER
FSS: RALEIGH FLIGHT SERVICE STATION
NOTAMs facility: RDU (NOTAM-D service available)
Attendance: IREG
Wind indicator: yes
Segmented circle: no
Lights: SS-SR

Airport Communications

CTAF: 122.9
WX ASOS at NCA (14 nm N): 288.325

Nearby radio navigation aids

VOR radial/distance  VOR name  Freq  Var
ILMr071/18.9WILMINGTON VORTAC117.0007W

 
NDB name  Hdg/Dist  Freq  Var  ID
DIXON228/6.119808WDIW -.. .. .--

Airport Services

Parking: tiedowns

Runway Information

Runway 14/32

Dimensions: 3591 x 88 ft. / 1095 x 27 m
Surface: turf, in good condition
Runway edge lights: non-standard
LGTD THR RWY 14 RELCTD 925 FT; RWY 32 LGTD THR RELCTD 600 FT; 2000 FT OF RWY 14/32 USBL FOR NGT OPS.
RUNWAY 14  RUNWAY 32
Latitude: 34-29.626833N34-29.232333N
Longitude: 077-32.194333W077-31.660667W
Elevation: 48.0 ft.35.0 ft.
Traffic pattern: leftleft
Displaced threshold: 982 ft.600 ft.
Obstructions: 60 ft. pline
RWY 14 APCH RATIO 15:1 TO DSPLCD THR DUE TO 60 FT UNMKD PWR LN;
35 ft. pline, marked, 74 ft. from runway, 1:1 slope to clear
RWY 32 APCH SLOPE 17:1 TO DSPLCD THR DUE TO 38 FT MKR PWR LN; RWY 32 HAS A ROAD 135 FT FM END OF RWY.

Airport Ownership and Management from official FAA records

Ownership: Privately-owned
Owner: NEW HANNOVER AIRPORT LLC
PO BOX 3274
TOPSAIL BEACH, NC 28445
Phone 734-516-0330
Manager: MICHAEL D SOIGNET
PO BOX 3274
HOLLY RIDGE, NC 28445
Phone 734-516-0330

Airport Operational Statistics

Aircraft based on the field: 3
Single engine airplanes: 3
    
Aircraft operations: avg 88/week *
54% transient general aviation
43% local general aviation
2% military
* for 12-month period ending 13 June 2019

Additional Remarks

A51 DSPLCD THRS INDCD BY END OF RWY LGTS AND YELLOW CONES.
DEER ON & INVOF ARPT.
FOR CD CTC WASHINGTON ARTCC AT 703-771-3587.

Instrument Procedures

There are no published instrument procedures at N21.

Some nearby airports with instrument procedures:

KNCA - New River Marine Corps Air Station (H) (McCutcheon Field) (14 nm N)
KOAJ - Albert J Ellis Airport (21 nm N)
KILM - Wilmington International Airport (23 nm SW)
KACZ - Henderson Field Airport (27 nm NW)
KDPL - Duplin County Airport (38 nm NW)
 
Loc | Ops | Rwys | IFR | FBO | Links
Com | Nav | Svcs | Stats | Notes
Area around N21 (Holly Ridge/Topsail Island Airport)
 
Road maps at: MapQuest Bing Google
 
Aerial photo
WARNING: Photo may not be current or correct
Aerial photo of N21 (Holly Ridge/Topsail Island Airport)
Photo by Joe Freeman
Photo taken 08-Dec-2011
looking northwest.

Do you have a better or more recent aerial photo of Holly Ridge/Topsail Island Airport that you would like to share? If so, please send us your photo.

 
Sectional chart

 
Airport distance calculator
Flying to Holly Ridge/Topsail Island Airport? Find the distance to fly.

From to N21

Sunrise and sunset
Times for 01-Dec-2021
 Local
(UTC-5)
 Zulu
(UTC)
Morning civil twilight06:3211:32
Sunrise07:0012:00
Sunset16:5921:59
Evening civil twilight17:2622:26

Current date and time
Zulu (UTC)  01-Dec-2021 07:40:12
Local (UTC-5)  01-Dec-2021 02:40:12
 
METAR
KNCA 
14nm N 
010656Z AUTO 24005KT 10SM CLR 08/02 A3015 RMK AO2 SLP213 T00780022
KOAJ 
20nm N 
010656Z AUTO 20005KT 10SM CLR 02/00 A3015 RMK AO2 SLP214 T00220000 FZRANO
KILM 
23nm SW 
010653Z AUTO 24005KT 10SM CLR 08/04 A3016 RMK AO2 SLP214 T00780044
KNJM 
28nm NE 
010657Z AUTO 26004KT 10SM CLR 08/01 A3016 RMK AO2 SLP216 T00780011 $
TAF
KNCA 
14nm N 
0103/0203 VRB06KT 9999 SKC QNH3012INS BECMG 0200/0202 VRB06KT 9999 SCT200 QNH3016INS T02/0111Z T17/0118Z
NOTAMs
Click for the latest NOTAMs
NOTAMs are issued by the DoD/FAA and will open in a separate window not controlled by AirNav.

 

 
 

Would you like to see your business listed on this page?

 If your business provides an interesting product or service to pilots, flight crews, aircraft, or users of the Holly Ridge/Topsail Island Airport, you should consider listing it here.  To start the listing process, click on the button below
 
Add a business
 

Other Pages about Holly Ridge/Topsail Island Airport

Update a link
 
Copyright © AirNav, LLC. All rights reserved. Privacy Policy  Contact